Sv.knyaz Vladimir — UBKI2 — position and weather

sailwx.info

Track history (hours):
 
Tides and Currents Weather Stations Pressure Air Temp Water Temp Dewpoint Dewpoint Depression Visibility Wind Speed Wind Dir Waves Ship Positions

Sv.knyaz Vladimir

Last reported at 2016-May-20 00:33 UTC. Time now 2016-May-24 13:48 UTC.
Position N 40°48' E 028°43'.

Length 128 m; draft 4.3 m.

Type: Cargo ship. MMSI: 273350360.

Date/timePositionNaut miles runAvg speedWind from/ knotsBaromVisibWave heightAir tempDewpointWater temp
2016-May-20 00:33N 40°48' E 028°43'8 7.9
2016-May-19 23:31N 40°53' E 028°51'8 8.3
2016-May-19 22:33N 40°59' E 028°59'418 8.1
2016-May-17 19:13N 45°17' E 036°29'5 7.4
2016-May-17 18:33N 45°20' E 036°35'5 5.5
2016-May-17 17:34N 45°23' E 036°41'5 5.0
2016-May-17 16:33N 45°28' E 036°43'9 7.5
2016-May-17 15:21N 45°36' E 036°48'90 6.3
2016-May-17 01:04N 46°49' E 038°05'3 6.7
2016-May-17 00:33N 46°47' E 038°09'2 2.3
2016-May-16 23:32N 46°46' E 038°11'0 0.0
2016-May-16 22:32N 46°46' E 038°11'0 0.0
2016-May-16 21:32N 46°46' E 038°11'0 0.0
2016-May-16 20:32N 46°46' E 038°11'0 0.0
2016-May-16 19:14N 46°46' E 038°11'0 0.0
2016-May-16 18:26N 46°46' E 038°11'0 0.0
2016-May-16 06:25N 46°46' E 038°11'0 0.0
2016-May-16 05:31N 46°46' E 038°11'0 0.1
2016-May-16 04:31N 46°46' E 038°11'0 0.0
2016-May-16 03:31N 46°46' E 038°11'0 0.0
2016-May-16 02:31N 46°46' E 038°11'0 0.0
2016-May-16 01:25N 46°46' E 038°11'0 0.0
2016-May-16 00:31N 46°46' E 038°11'0 0.0
2016-May-15 23:31N 46°46' E 038°11'0 0.0
2016-May-15 22:31N 46°46' E 038°11'0 0.0
2016-May-15 21:31N 46°46' E 038°11'0 0.0
2016-May-15 20:31N 46°46' E 038°11'0 0.0
2016-May-15 19:31N 46°46' E 038°11'0 0.0
2016-May-15 18:28N 46°46' E 038°11'0 0.0
2016-May-15 17:31N 46°46' E 038°11'0 0.0
2016-May-15 15:13N 46°46' E 038°11'0 0.0
2016-May-15 14:28N 46°46' E 038°11'0 0.0
2016-May-15 13:25N 46°46' E 038°11'0 0.0
2016-May-15 12:31N 46°46' E 038°11'0 0.0
2016-May-15 11:31N 46°46' E 038°11'0 0.0
2016-May-15 10:25N 46°46' E 038°11'0 0.0
2016-May-15 09:31N 46°46' E 038°11'0 0.0
2016-May-15 08:31N 46°46' E 038°11'0 0.0
2016-May-15 07:31N 46°46' E 038°11'0 0.0
2016-May-15 06:22N 46°46' E 038°11'0 0.0
2016-May-15 05:28N 46°46' E 038°11'0 0.0
2016-May-15 04:22N 46°46' E 038°11'0 0.0
2016-May-15 03:28N 46°46' E 038°11'0 0.0
2016-May-15 02:28N 46°46' E 038°11'0 0.0
2016-May-15 01:22N 46°46' E 038°11'0 0.0
2016-May-15 00:28N 46°46' E 038°11'0 0.0
2016-May-14 23:28N 46°46' E 038°11'0 0.0
2016-May-14 22:22N 46°46' E 038°11'0 0.0
2016-May-14 21:28N 46°46' E 038°11'0 0.0
2016-May-14 20:28N 46°46' E 038°11'0 0.0
2016-May-14 19:28N 46°46' E 038°11'0 0.0
2016-May-14 18:28N 46°46' E 038°11'0 0.0
2016-May-14 17:07N 46°46' E 038°11'0 0.0
2016-May-14 16:22N 46°46' E 038°11'0 0.0
2016-May-14 14:19N 46°46' E 038°11'0 0.0
2016-May-14 12:13N 46°46' E 038°11'0 0.0
2016-May-14 11:28N 46°46' E 038°11'0 0.0
2016-May-14 10:28N 46°46' E 038°11'0 0.0
2016-May-14 09:31N 46°46' E 038°11'0 0.0
2016-May-14 08:31N 46°46' E 038°11'0 0.0
2016-May-14 07:28N 46°46' E 038°11'0 0.0
2016-May-14 06:25N 46°46' E 038°11'0 0.0
2016-May-14 04:31N 46°46' E 038°11'0 0.0
2016-May-14 03:31N 46°46' E 038°11'0 0.0
2016-May-14 02:19N 46°46' E 038°11'0 0.0
2016-May-14 01:31N 46°46' E 038°11'0 0.0
2016-May-14 00:31N 46°46' E 038°11'0 0.0
2016-May-13 23:31N 46°46' E 038°11'0 0.0
2016-May-13 22:31N 46°46' E 038°11'0 0.0
2016-May-13 21:31N 46°46' E 038°11'0 0.0
2016-May-13 20:19N 46°46' E 038°11'0 0.0
2016-May-13 19:32N 46°46' E 038°11'0 0.1
2016-May-13 18:33N 46°46' E 038°11'0 0.1
2016-May-13 17:33N 46°46' E 038°11'0 0.0
2016-May-13 16:34N 46°46' E 038°11'0 0.0
2016-May-13 15:33N 46°46' E 038°11'4 3.4
2016-May-13 14:20N 46°44' E 038°16'0 0.0
2016-May-13 13:10N 46°44' E 038°17'0 0.0
2016-May-13 12:31N 46°44' E 038°17'0 0.0
2016-May-13 10:17N 46°44' E 038°17'0 0.0
2016-May-13 08:25N 46°44' E 038°17'0 0.0
2016-May-13 07:31N 46°44' E 038°17'0 0.0
2016-May-13 06:28N 46°44' E 038°17'0 0.0
2016-May-13 04:33N 46°44' E 038°17'0 0.0
2016-May-13 03:30N 46°44' E 038°17'0 0.0
2016-May-13 02:30N 46°44' E 038°17'0 0.0
2016-May-13 01:30N 46°44' E 038°17'0 0.0
2016-May-13 00:30N 46°44' E 038°17'0 0.0
2016-May-12 23:32N 46°44' E 038°17'0 0.0
2016-May-12 22:32N 46°44' E 038°17'0 0.0
2016-May-12 21:32N 46°44' E 038°17'0 0.0
2016-May-12 20:26N 46°44' E 038°17'0 0.0
2016-May-12 18:29N 46°44' E 038°17'0 0.0
2016-May-12 17:17N 46°44' E 038°17'0 0.0
2016-May-12 16:32N 46°44' E 038°17'0 0.0
2016-May-12 15:32N 46°44' E 038°17'0 0.0
2016-May-12 13:11N 46°44' E 038°17'0 0.0
2016-May-12 11:26N 46°44' E 038°17'0 0.0
2016-May-12 09:11N 46°44' E 038°17'0 0.0
2016-May-11 14:29N 46°44' E 038°17'0 0.0
2016-May-11 13:29N 46°44' E 038°17'0 0.0
2016-May-11 12:29N 46°44' E 038°17'0 0.0
2016-May-11 11:29N 46°44' E 038°17'0 0.0
2016-May-11 10:29N 46°44' E 038°17'0 0.0
2016-May-11 09:29N 46°44' E 038°17'0 0.0
2016-May-11 08:28N 46°44' E 038°17'0 0.0
2016-May-11 07:25N 46°44' E 038°17'1 0.6
2016-May-11 06:32N 46°44' E 038°16'3 3.0
2016-May-11 05:32N 46°45' E 038°12'0 0.0
2016-May-11 04:32N 46°45' E 038°12'0 0.0
2016-May-11 03:32N 46°45' E 038°12'0 0.0
2016-May-11 02:32N 46°45' E 038°12'0 0.0
2016-May-11 01:29N 46°45' E 038°12'0 0.0
2016-May-11 00:29N 46°45' E 038°12'0 0.0
2016-May-10 23:29N 46°45' E 038°12'0 0.0
2016-May-10 22:29N 46°45' E 038°12'0 0.0
2016-May-10 21:23N 46°45' E 038°12'0 0.0
2016-May-10 20:14N 46°45' E 038°12'0 0.0
2016-May-10 18:29N 46°45' E 038°12'1 1.0
2016-May-10 17:33N 46°46' E 038°11'8 8.5
2016-May-10 16:33N 46°52' E 038°03'8 7.6
2016-May-10 15:33N 46°54' E 037°52'8 8.5
2016-May-10 14:33N 46°52' E 037°40'69 8.3
2016-May-10 06:10N 45°49' E 036°58'5 8.8
2016-May-10 05:33N 45°44' E 036°55'9 8.8
2016-May-10 04:33N 45°35' E 036°50'9 8.9
2016-May-10 03:33N 45°28' E 036°43'8 8.1
2016-May-10 02:33N 45°21' E 036°39'8 7.6
2016-May-10 01:33N 45°18' E 036°29'  
Track history (hours):
 
Tides and Currents Weather Stations Pressure Air Temp Water Temp Dewpoint Dewpoint Depression Visibility Wind Speed Wind Dir Waves Ship Positions

Sv.knyaz Vladimir

Last reported at 2016-May-20 00:33 UTC. Time now 2016-May-24 13:48 UTC.
Position N 40°48' E 028°43'.

Length 128 m; draft 4.3 m.

Type: Cargo ship. MMSI: 273350360.

Date/timePositionNaut miles runAvg speedWind from/ knotsBaromVisibWave heightAir tempDewpointWater temp
2016-May-20 00:33N 40°48' E 028°43'8 7.9
2016-May-19 23:31N 40°53' E 028°51'8 8.3
2016-May-19 22:33N 40°59' E 028°59'418 8.1
2016-May-17 19:13N 45°17' E 036°29'5 7.4
2016-May-17 18:33N 45°20' E 036°35'5 5.5
2016-May-17 17:34N 45°23' E 036°41'5 5.0
2016-May-17 16:33N 45°28' E 036°43'9 7.5
2016-May-17 15:21N 45°36' E 036°48'90 6.3
2016-May-17 01:04N 46°49' E 038°05'3 6.7
2016-May-17 00:33N 46°47' E 038°09'2 2.3
2016-May-16 23:32N 46°46' E 038°11'0 0.0
2016-May-16 22:32N 46°46' E 038°11'0 0.0
2016-May-16 21:32N 46°46' E 038°11'0 0.0
2016-May-16 20:32N 46°46' E 038°11'0 0.0
2016-May-16 19:14N 46°46' E 038°11'0 0.0
2016-May-16 18:26N 46°46' E 038°11'0 0.0
2016-May-16 06:25N 46°46' E 038°11'0 0.0
2016-May-16 05:31N 46°46' E 038°11'0 0.1
2016-May-16 04:31N 46°46' E 038°11'0 0.0
2016-May-16 03:31N 46°46' E 038°11'0 0.0
2016-May-16 02:31N 46°46' E 038°11'0 0.0
2016-May-16 01:25N 46°46' E 038°11'0 0.0
2016-May-16 00:31N 46°46' E 038°11'0 0.0
2016-May-15 23:31N 46°46' E 038°11'0 0.0
2016-May-15 22:31N 46°46' E 038°11'0 0.0
2016-May-15 21:31N 46°46' E 038°11'0 0.0
2016-May-15 20:31N 46°46' E 038°11'0 0.0
2016-May-15 19:31N 46°46' E 038°11'0 0.0
2016-May-15 18:28N 46°46' E 038°11'0 0.0
2016-May-15 17:31N 46°46' E 038°11'0 0.0
2016-May-15 15:13N 46°46' E 038°11'0 0.0
2016-May-15 14:28N 46°46' E 038°11'0 0.0
2016-May-15 13:25N 46°46' E 038°11'0 0.0
2016-May-15 12:31N 46°46' E 038°11'0 0.0
2016-May-15 11:31N 46°46' E 038°11'0 0.0
2016-May-15 10:25N 46°46' E 038°11'0 0.0
2016-May-15 09:31N 46°46' E 038°11'0 0.0
2016-May-15 08:31N 46°46' E 038°11'0 0.0
2016-May-15 07:31N 46°46' E 038°11'0 0.0
2016-May-15 06:22N 46°46' E 038°11'0 0.0
2016-May-15 05:28N 46°46' E 038°11'0 0.0
2016-May-15 04:22N 46°46' E 038°11'0 0.0
2016-May-15 03:28N 46°46' E 038°11'0 0.0
2016-May-15 02:28N 46°46' E 038°11'0 0.0
2016-May-15 01:22N 46°46' E 038°11'0 0.0
2016-May-15 00:28N 46°46' E 038°11'0 0.0
2016-May-14 23:28N 46°46' E 038°11'0 0.0
2016-May-14 22:22N 46°46' E 038°11'0 0.0
2016-May-14 21:28N 46°46' E 038°11'0 0.0
2016-May-14 20:28N 46°46' E 038°11'0 0.0
2016-May-14 19:28N 46°46' E 038°11'0 0.0
2016-May-14 18:28N 46°46' E 038°11'0 0.0
2016-May-14 17:07N 46°46' E 038°11'0 0.0
2016-May-14 16:22N 46°46' E 038°11'0 0.0
2016-May-14 14:19N 46°46' E 038°11'0 0.0
2016-May-14 12:13N 46°46' E 038°11'0 0.0
2016-May-14 11:28N 46°46' E 038°11'0 0.0
2016-May-14 10:28N 46°46' E 038°11'0 0.0
2016-May-14 09:31N 46°46' E 038°11'0 0.0
2016-May-14 08:31N 46°46' E 038°11'0 0.0
2016-May-14 07:28N 46°46' E 038°11'0 0.0
2016-May-14 06:25N 46°46' E 038°11'0 0.0
2016-May-14 04:31N 46°46' E 038°11'0 0.0
2016-May-14 03:31N 46°46' E 038°11'0 0.0
2016-May-14 02:19N 46°46' E 038°11'0 0.0
2016-May-14 01:31N 46°46' E 038°11'0 0.0
2016-May-14 00:31N 46°46' E 038°11'0 0.0
2016-May-13 23:31N 46°46' E 038°11'0 0.0
2016-May-13 22:31N 46°46' E 038°11'0 0.0
2016-May-13 21:31N 46°46' E 038°11'0 0.0
2016-May-13 20:19N 46°46' E 038°11'0 0.0
2016-May-13 19:32N 46°46' E 038°11'0 0.1
2016-May-13 18:33N 46°46' E 038°11'0 0.1
2016-May-13 17:33N 46°46' E 038°11'0 0.0
2016-May-13 16:34N 46°46' E 038°11'0 0.0
2016-May-13 15:33N 46°46' E 038°11'4 3.4
2016-May-13 14:20N 46°44' E 038°16'0 0.0
2016-May-13 13:10N 46°44' E 038°17'0 0.0
2016-May-13 12:31N 46°44' E 038°17'0 0.0
2016-May-13 10:17N 46°44' E 038°17'0 0.0
2016-May-13 08:25N 46°44' E 038°17'0 0.0
2016-May-13 07:31N 46°44' E 038°17'0 0.0
2016-May-13 06:28N 46°44' E 038°17'0 0.0
2016-May-13 04:33N 46°44' E 038°17'0 0.0
2016-May-13 03:30N 46°44' E 038°17'0 0.0
2016-May-13 02:30N 46°44' E 038°17'0 0.0
2016-May-13 01:30N 46°44' E 038°17'0 0.0
2016-May-13 00:30N 46°44' E 038°17'0 0.0
2016-May-12 23:32N 46°44' E 038°17'0 0.0
2016-May-12 22:32N 46°44' E 038°17'0 0.0
2016-May-12 21:32N 46°44' E 038°17'0 0.0
2016-May-12 20:26N 46°44' E 038°17'0 0.0
2016-May-12 18:29N 46°44' E 038°17'0 0.0
2016-May-12 17:17N 46°44' E 038°17'0 0.0
2016-May-12 16:32N 46°44' E 038°17'0 0.0
2016-May-12 15:32N 46°44' E 038°17'0 0.0
2016-May-12 13:11N 46°44' E 038°17'0 0.0
2016-May-12 11:26N 46°44' E 038°17'0 0.0
2016-May-12 09:11N 46°44' E 038°17'0 0.0
2016-May-11 14:29N 46°44' E 038°17'0 0.0
2016-May-11 13:29N 46°44' E 038°17'0 0.0
2016-May-11 12:29N 46°44' E 038°17'0 0.0
2016-May-11 11:29N 46°44' E 038°17'0 0.0
2016-May-11 10:29N 46°44' E 038°17'0 0.0
2016-May-11 09:29N 46°44' E 038°17'0 0.0
2016-May-11 08:28N 46°44' E 038°17'0 0.0
2016-May-11 07:25N 46°44' E 038°17'1 0.6
2016-May-11 06:32N 46°44' E 038°16'3 3.0
2016-May-11 05:32N 46°45' E 038°12'0 0.0
2016-May-11 04:32N 46°45' E 038°12'0 0.0
2016-May-11 03:32N 46°45' E 038°12'0 0.0
2016-May-11 02:32N 46°45' E 038°12'0 0.0
2016-May-11 01:29N 46°45' E 038°12'0 0.0
2016-May-11 00:29N 46°45' E 038°12'0 0.0
2016-May-10 23:29N 46°45' E 038°12'0 0.0
2016-May-10 22:29N 46°45' E 038°12'0 0.0
2016-May-10 21:23N 46°45' E 038°12'0 0.0
2016-May-10 20:14N 46°45' E 038°12'0 0.0
2016-May-10 18:29N 46°45' E 038°12'1 1.0
2016-May-10 17:33N 46°46' E 038°11'8 8.5
2016-May-10 16:33N 46°52' E 038°03'8 7.6
2016-May-10 15:33N 46°54' E 037°52'8 8.5
2016-May-10 14:33N 46°52' E 037°40'69 8.3
2016-May-10 06:10N 45°49' E 036°58'5 8.8
2016-May-10 05:33N 45°44' E 036°55'9 8.8
2016-May-10 04:33N 45°35' E 036°50'9 8.9
2016-May-10 03:33N 45°28' E 036°43'8 8.1
2016-May-10 02:33N 45°21' E 036°39'8 7.6
2016-May-10 01:33N 45°18' E 036°29'  

Dump ship's entire track history